createdAt,value
2024-02-05T00:00:57.230Z,19.00
2024-02-05T00:03:59.699Z,19.00
2024-02-05T00:07:01.992Z,19.00
2024-02-05T00:10:06.611Z,18.94
2024-02-05T00:13:09.086Z,18.94
2024-02-05T00:16:12.439Z,18.94
2024-02-05T00:19:14.837Z,18.94
2024-02-05T00:22:17.174Z,18.94
2024-02-05T00:25:23.412Z,18.88
2024-02-05T00:28:25.898Z,18.88
2024-02-05T00:31:28.218Z,18.81
2024-02-05T00:34:30.769Z,18.88
2024-02-05T00:37:33.153Z,18.88
2024-02-05T00:40:36.046Z,18.81
2024-02-05T00:43:38.431Z,18.81
2024-02-05T00:46:40.884Z,18.81
2024-02-05T00:49:43.218Z,18.75
2024-02-05T00:52:46.066Z,18.81
2024-02-05T00:55:48.394Z,18.81
2024-02-05T00:58:50.955Z,18.75
2024-02-05T01:01:53.464Z,18.69
2024-02-05T01:04:57.561Z,18.69
2024-02-05T01:07:59.976Z,18.75
2024-02-05T01:11:02.607Z,18.69
2024-02-05T01:14:05.070Z,18.69
2024-02-05T01:17:07.395Z,18.69
2024-02-05T01:20:12.155Z,18.69
2024-02-05T01:23:14.986Z,18.63
2024-02-05T01:26:17.320Z,18.63
2024-02-05T01:29:20.221Z,18.63
2024-02-05T01:32:22.626Z,18.63
2024-02-05T01:35:24.983Z,18.63
2024-02-05T01:38:27.391Z,18.63
2024-02-05T01:41:29.619Z,18.56
2024-02-05T01:44:31.895Z,18.56
2024-02-05T01:47:37.681Z,18.56
2024-02-05T01:50:40.148Z,18.56
2024-02-05T01:53:43.159Z,18.56
2024-02-05T01:56:46.349Z,18.56
2024-02-05T01:59:48.796Z,18.56
2024-02-05T02:02:51.103Z,18.50
2024-02-05T02:05:53.610Z,18.50
2024-02-05T02:08:56.757Z,18.50
2024-02-05T02:11:58.988Z,18.50
2024-02-05T02:15:01.439Z,18.44
2024-02-05T02:18:07.442Z,18.50
2024-02-05T02:21:14.804Z,18.44
2024-02-05T02:24:17.151Z,18.44
2024-02-05T02:27:19.443Z,18.44
2024-02-05T02:30:22.994Z,18.44
2024-02-05T02:33:38.154Z,18.44
2024-02-05T02:36:52.619Z,18.38
2024-02-05T02:40:06.831Z,18.38
2024-02-05T02:43:11.225Z,18.38
2024-02-05T02:46:13.674Z,18.38
2024-02-05T02:49:16.480Z,18.38
2024-02-05T02:52:18.883Z,18.38
2024-02-05T02:55:21.284Z,18.31
2024-02-05T02:58:23.651Z,18.31
2024-02-05T03:01:26.061Z,18.31
2024-02-05T03:04:28.430Z,18.31
2024-02-05T03:07:35.738Z,18.31
2024-02-05T03:10:38.302Z,18.31
2024-02-05T03:13:40.682Z,18.31
2024-02-05T03:16:43.084Z,18.31
2024-02-05T03:19:45.402Z,18.31
2024-02-05T03:22:58.365Z,18.25
2024-02-05T03:26:07.677Z,18.25
2024-02-05T03:29:10.026Z,18.25
2024-02-05T03:32:12.361Z,18.25
2024-02-05T03:35:17.114Z,18.25
2024-02-05T03:38:19.531Z,18.25
2024-02-05T03:41:21.871Z,18.25
2024-02-05T03:44:24.120Z,18.19
2024-02-05T03:47:26.432Z,18.19
2024-02-05T03:50:29.746Z,18.19
2024-02-05T03:53:32.005Z,18.19
2024-02-05T03:56:34.197Z,18.19
2024-02-05T03:59:36.916Z,18.13
2024-02-05T04:02:42.917Z,18.13
2024-02-05T04:05:45.300Z,18.13
2024-02-05T04:08:47.587Z,18.13
2024-02-05T04:11:50.238Z,18.13
2024-02-05T04:14:52.548Z,18.13
2024-02-05T04:17:55.015Z,18.13
2024-02-05T04:21:04.464Z,18.13
2024-02-05T04:24:06.874Z,18.13
2024-02-05T04:27:09.125Z,18.06
2024-02-05T04:30:11.961Z,18.06
2024-02-05T04:33:14.431Z,18.13
2024-02-05T04:36:17.336Z,18.13
2024-02-05T04:39:20.035Z,18.25
2024-02-05T04:42:22.573Z,18.44
2024-02-05T04:45:25.232Z,18.56
2024-02-05T04:48:27.603Z,18.63
2024-02-05T04:51:29.983Z,18.63
2024-02-05T04:54:34.620Z,18.75
2024-02-05T04:57:36.928Z,18.94
2024-02-05T05:00:39.389Z,18.94
2024-02-05T05:03:41.815Z,18.94
2024-02-05T05:06:44.636Z,19.00
2024-02-05T05:09:47.102Z,19.00
2024-02-05T05:12:49.842Z,19.19
2024-02-05T05:15:56.234Z,19.19
2024-02-05T05:19:02.706Z,19.19
2024-02-05T05:22:05.355Z,19.19
2024-02-05T05:25:10.779Z,19.19
2024-02-05T05:28:13.114Z,19.13
2024-02-05T05:31:18.729Z,19.13
2024-02-05T05:34:21.423Z,19.19
2024-02-05T05:37:23.940Z,19.38
2024-02-05T05:40:26.789Z,19.44
2024-02-05T05:43:29.565Z,19.31
2024-02-05T05:46:31.814Z,19.38
2024-02-05T05:49:34.266Z,19.38
2024-02-05T05:52:37.275Z,19.31
2024-02-05T05:55:39.668Z,19.31
2024-02-05T05:58:41.955Z,19.31
2024-02-05T06:01:44.472Z,19.50
2024-02-05T06:04:47.013Z,19.56
2024-02-05T06:07:49.489Z,19.56
2024-02-05T06:10:52.692Z,19.50
2024-02-05T06:13:55.147Z,19.50
2024-02-05T06:16:57.689Z,19.56
2024-02-05T06:20:00.136Z,19.69
2024-02-05T06:23:02.530Z,19.63
2024-02-05T06:26:04.978Z,19.63
2024-02-05T06:29:07.291Z,19.63
2024-02-05T06:32:09.598Z,19.69
2024-02-05T06:35:12.259Z,19.75
2024-02-05T06:38:14.691Z,19.75
2024-02-05T06:41:17.040Z,19.75
2024-02-05T06:44:21.253Z,19.69
2024-02-05T06:47:23.778Z,19.69
2024-02-05T06:50:26.089Z,19.75
2024-02-05T06:53:28.370Z,19.81
2024-02-05T06:56:30.740Z,19.88
2024-02-05T06:59:33.040Z,19.81
2024-02-05T07:02:35.529Z,19.75
2024-02-05T07:05:38.081Z,19.81
2024-02-05T07:08:40.414Z,19.88
2024-02-05T07:11:43.519Z,19.94
2024-02-05T07:14:45.836Z,19.88
2024-02-05T07:17:48.486Z,19.88
2024-02-05T07:20:50.853Z,19.88
2024-02-05T07:23:53.254Z,19.88
2024-02-05T07:26:55.447Z,20.00
2024-02-05T07:29:57.734Z,20.06
2024-02-05T07:33:00.190Z,20.06
2024-02-05T07:36:02.644Z,20.00
2024-02-05T07:39:08.965Z,19.88
2024-02-05T07:42:11.477Z,20.00
2024-02-05T07:45:14.041Z,20.06
2024-02-05T07:48:16.440Z,20.13
2024-02-05T07:51:18.888Z,20.06
2024-02-05T07:54:21.190Z,20.00
2024-02-05T07:57:23.426Z,20.06
2024-02-05T08:00:26.107Z,20.13
2024-02-05T08:03:28.903Z,20.25
2024-02-05T08:06:31.719Z,20.31
2024-02-05T08:09:36.253Z,20.25
2024-02-05T08:12:38.954Z,20.25
2024-02-05T08:15:41.687Z,20.38
2024-02-05T08:18:44.385Z,20.44
2024-02-05T08:21:46.683Z,20.56
2024-02-05T08:24:48.997Z,20.44
2024-02-05T08:27:51.369Z,20.50
2024-02-05T08:30:53.719Z,20.50
2024-02-05T08:33:56.060Z,20.50
2024-02-05T08:36:58.462Z,20.63
2024-02-05T08:40:01.141Z,20.75
2024-02-05T08:43:03.422Z,20.75
2024-02-05T08:46:08.007Z,20.69
2024-02-05T08:49:12.269Z,20.69
2024-02-05T08:52:14.726Z,20.63
2024-02-05T08:55:17.108Z,20.56
2024-02-05T08:58:19.480Z,20.63
2024-02-05T09:01:21.851Z,20.69
2024-02-05T09:04:24.923Z,20.81
2024-02-05T09:07:28.698Z,20.81
2024-02-05T09:10:31.165Z,20.81
2024-02-05T09:13:33.647Z,20.81
2024-02-05T09:16:36.122Z,20.88
2024-02-05T09:19:38.736Z,20.94
2024-02-05T09:22:46.792Z,20.94
2024-02-05T09:25:49.162Z,20.81
2024-02-05T09:28:51.395Z,20.81
2024-02-05T09:31:55.227Z,20.88
2024-02-05T09:35:00.540Z,20.94
2024-02-05T09:38:06.649Z,21.00
2024-02-05T09:41:12.790Z,21.00
2024-02-05T09:44:17.840Z,20.88
2024-02-05T09:47:20.570Z,20.88
2024-02-05T09:50:25.427Z,20.94
2024-02-05T09:53:29.173Z,21.06
2024-02-05T09:56:35.685Z,21.13
2024-02-05T09:59:42.063Z,21.06
2024-02-05T10:02:44.617Z,20.94
2024-02-05T10:05:50.875Z,20.88
2024-02-05T10:08:59.319Z,20.88
2024-02-05T10:12:03.397Z,20.81
2024-02-05T10:15:08.150Z,20.88
2024-02-05T10:18:13.559Z,21.00
2024-02-05T10:21:16.863Z,21.06
2024-02-05T10:24:19.149Z,21.00
2024-02-05T10:27:21.625Z,21.06
2024-02-05T10:30:23.965Z,21.06
2024-02-05T10:33:26.653Z,21.13
2024-02-05T10:36:28.980Z,21.06
2024-02-05T10:39:31.258Z,21.06
2024-02-05T10:42:34.275Z,21.00
2024-02-05T10:45:39.580Z,21.00
2024-02-05T10:48:43.619Z,20.94
2024-02-05T10:51:46.796Z,20.94
2024-02-05T10:54:51.555Z,21.00
2024-02-05T10:57:54.084Z,21.13
2024-02-05T11:01:00.469Z,21.19
2024-02-05T11:04:04.762Z,21.13
2024-02-05T11:07:11.014Z,21.13
2024-02-05T11:10:15.180Z,21.19
2024-02-05T11:13:27.928Z,21.25
2024-02-05T11:16:33.446Z,21.25
2024-02-05T11:19:37.469Z,21.44
2024-02-05T11:22:43.650Z,21.50
2024-02-05T11:25:48.134Z,21.31
2024-02-05T11:28:51.402Z,21.25
2024-02-05T11:31:55.273Z,21.19
2024-02-05T11:34:57.895Z,21.19
2024-02-05T11:38:10.975Z,19.50
2024-02-05T11:41:13.580Z,20.38
2024-02-05T11:44:16.781Z,21.06
2024-02-05T11:47:19.624Z,21.25
2024-02-05T11:50:21.944Z,21.38
2024-02-05T11:53:25.070Z,21.31
2024-02-05T11:56:28.053Z,21.38
2024-02-05T11:59:30.545Z,21.44
2024-02-05T12:02:33.530Z,21.44
2024-02-05T12:05:36.830Z,21.56
2024-02-05T12:08:40.064Z,21.50
2024-02-05T12:11:43.120Z,21.56
2024-02-05T12:14:45.432Z,21.38
2024-02-05T12:17:48.323Z,21.50
2024-02-05T12:20:58.852Z,21.50
2024-02-05T12:24:01.199Z,21.50
2024-02-05T12:27:03.745Z,21.56
2024-02-05T12:30:09.575Z,21.63
2024-02-05T12:33:16.436Z,21.63
2024-02-05T12:36:19.436Z,21.69
2024-02-05T12:39:22.555Z,21.81
2024-02-05T12:42:28.029Z,21.81
2024-02-05T12:45:30.622Z,21.88
2024-02-05T12:48:34.145Z,21.88
2024-02-05T12:51:37.744Z,21.88
2024-02-05T12:54:40.570Z,21.88
2024-02-05T12:57:42.885Z,21.88
2024-02-05T13:00:46.848Z,21.69
2024-02-05T13:03:50.715Z,21.94
2024-02-05T13:07:13.236Z,22.00
2024-02-05T13:10:16.358Z,20.31
2024-02-05T13:13:20.317Z,21.63
2024-02-05T13:16:23.114Z,21.88
2024-02-05T13:19:25.453Z,22.06
2024-02-05T13:22:27.997Z,22.06
2024-02-05T13:25:38.507Z,22.00
2024-02-05T13:28:47.321Z,22.06
2024-02-05T13:31:49.537Z,22.06
2024-02-05T13:34:51.842Z,22.00
2024-02-05T13:37:54.186Z,21.88
2024-02-05T13:40:56.498Z,21.88
2024-02-05T13:43:59.805Z,21.88
2024-02-05T13:47:04.910Z,21.63
2024-02-05T13:50:09.160Z,21.81
2024-02-05T13:53:11.674Z,21.94
2024-02-05T13:56:14.459Z,21.94
2024-02-05T13:59:19.877Z,21.81
2024-02-05T14:02:22.068Z,21.81
2024-02-05T14:05:24.397Z,21.88
2024-02-05T14:08:26.820Z,21.75
2024-02-05T14:11:29.110Z,21.75
2024-02-05T14:14:36.875Z,21.69
2024-02-05T14:17:39.166Z,21.69
2024-02-05T14:20:41.479Z,21.75
2024-02-05T14:23:43.772Z,21.75
2024-02-05T14:26:46.120Z,21.69
2024-02-05T14:29:48.340Z,21.75
2024-02-05T14:32:51.056Z,21.69
2024-02-05T14:35:54.123Z,21.69
2024-02-05T14:38:56.471Z,21.75
2024-02-05T14:41:58.914Z,21.75
2024-02-05T14:45:01.166Z,21.69
2024-02-05T14:48:04.491Z,21.63
2024-02-05T14:51:07.198Z,21.56
2024-02-05T14:54:11.799Z,21.56
2024-02-05T14:57:14.730Z,21.44
2024-02-05T15:00:17.340Z,21.31
2024-02-05T15:03:20.071Z,21.25
2024-02-05T15:06:22.958Z,21.19
2024-02-05T15:09:25.174Z,21.13
2024-02-05T15:12:29.408Z,21.13
2024-02-05T15:15:32.278Z,21.06
2024-02-05T15:18:34.760Z,21.06
2024-02-05T15:21:37.656Z,21.06
2024-02-05T15:24:40.747Z,21.06
2024-02-05T15:27:46.475Z,20.94
2024-02-05T15:30:49.578Z,20.88
2024-02-05T15:33:52.220Z,20.88
2024-02-05T15:36:54.699Z,20.88
2024-02-05T15:39:57.402Z,20.88
2024-02-05T15:42:59.902Z,20.75
2024-02-05T15:46:02.243Z,20.75
2024-02-05T15:49:04.862Z,20.69
2024-02-05T15:52:07.678Z,20.69
2024-02-05T15:55:10.254Z,20.63
2024-02-05T15:58:13.168Z,20.69
2024-02-05T16:01:15.723Z,20.63
2024-02-05T16:04:19.758Z,20.56
2024-02-05T16:07:22.469Z,20.69
2024-02-05T16:10:25.139Z,20.63
2024-02-05T16:13:31.579Z,20.63
2024-02-05T16:16:34.209Z,20.56
2024-02-05T16:19:37.144Z,20.56
2024-02-05T16:22:40.202Z,20.63
2024-02-05T16:25:44.264Z,20.56
2024-02-05T16:28:46.691Z,20.56
2024-02-05T16:31:49.046Z,20.56
2024-02-05T16:34:51.533Z,20.56
2024-02-05T16:37:54.147Z,20.50
2024-02-05T16:40:56.855Z,20.50
2024-02-05T16:43:59.157Z,20.44
2024-02-05T16:47:01.490Z,20.44
2024-02-05T16:50:04.478Z,20.44
2024-02-05T16:53:06.746Z,20.50
2024-02-05T16:56:12.332Z,20.44
2024-02-05T16:59:14.828Z,20.44
2024-02-05T17:02:18.332Z,20.44
2024-02-05T17:05:20.810Z,20.38
2024-02-05T17:08:24.106Z,20.38
2024-02-05T17:11:26.308Z,20.44
2024-02-05T17:14:28.520Z,20.31
2024-02-05T17:17:30.727Z,20.31
2024-02-05T17:20:33.660Z,20.31
2024-02-05T17:23:35.922Z,20.31
2024-02-05T17:26:38.528Z,20.31
2024-02-05T17:29:41.662Z,20.31
2024-02-05T17:32:44.027Z,20.31
2024-02-05T17:35:46.903Z,20.31
2024-02-05T17:38:49.375Z,20.31
2024-02-05T17:41:51.688Z,20.25
2024-02-05T17:44:54.025Z,20.25
2024-02-05T17:47:56.475Z,20.25
2024-02-05T17:50:59.111Z,20.25
2024-02-05T17:54:01.439Z,20.19
2024-02-05T17:57:03.738Z,20.19
2024-02-05T18:00:07.716Z,20.19
2024-02-05T18:03:09.910Z,20.19
2024-02-05T18:06:23.080Z,20.19
2024-02-05T18:09:25.486Z,20.19
2024-02-05T18:12:27.881Z,20.13
2024-02-05T18:15:30.086Z,20.13
2024-02-05T18:18:37.010Z,20.06
2024-02-05T18:21:39.359Z,20.06
2024-02-05T18:24:49.428Z,20.06
2024-02-05T18:27:58.098Z,20.06
2024-02-05T18:31:00.549Z,20.06
2024-02-05T18:34:03.344Z,20.06
2024-02-05T18:37:05.965Z,20.00
2024-02-05T18:40:10.475Z,20.00
2024-02-05T18:43:13.053Z,20.06
2024-02-05T18:46:17.416Z,20.06
2024-02-05T18:49:22.549Z,20.00
2024-02-05T18:52:24.932Z,19.94
2024-02-05T18:55:27.615Z,19.94
2024-02-05T18:58:30.045Z,19.94
2024-02-05T19:01:32.604Z,19.94
2024-02-05T19:04:35.811Z,20.00
2024-02-05T19:07:38.184Z,19.88
2024-02-05T19:10:40.635Z,19.94
2024-02-05T19:13:43.068Z,19.94
2024-02-05T19:16:47.282Z,19.94
2024-02-05T19:19:50.760Z,19.88
2024-02-05T19:22:53.921Z,19.88
2024-02-05T19:25:56.519Z,19.88
2024-02-05T19:29:05.358Z,19.88
2024-02-05T19:32:08.517Z,19.88
2024-02-05T19:35:13.115Z,19.81
2024-02-05T19:38:16.316Z,19.75
2024-02-05T19:41:18.697Z,19.75
2024-02-05T19:44:22.298Z,19.75
2024-02-05T19:47:24.650Z,19.75
2024-02-05T19:50:26.906Z,19.69
2024-02-05T19:53:29.167Z,19.69
2024-02-05T19:56:31.967Z,19.69
2024-02-05T19:59:34.631Z,19.69
2024-02-05T20:02:37.061Z,19.63
2024-02-05T20:05:39.623Z,19.63
2024-02-05T20:08:42.556Z,19.63
2024-02-05T20:11:46.685Z,19.63
2024-02-05T20:14:49.711Z,19.63
2024-02-05T20:17:54.412Z,19.63
2024-02-05T20:20:59.493Z,19.63
2024-02-05T20:24:04.080Z,19.56
2024-02-05T20:27:06.624Z,19.56
2024-02-05T20:30:09.561Z,19.56
2024-02-05T20:33:12.497Z,19.50
2024-02-05T20:36:15.291Z,19.50
2024-02-05T20:39:17.657Z,19.50
2024-02-05T20:42:20.432Z,19.50
2024-02-05T20:45:23.682Z,19.56
2024-02-05T20:48:26.815Z,19.50
2024-02-05T20:51:30.915Z,19.50
2024-02-05T20:54:35.967Z,19.50
2024-02-05T20:57:38.648Z,19.44
2024-02-05T21:00:44.010Z,19.44
2024-02-05T21:03:46.537Z,19.44
2024-02-05T21:06:48.973Z,19.44
2024-02-05T21:09:51.438Z,19.44
2024-02-05T21:12:53.730Z,19.44
2024-02-05T21:15:56.412Z,19.38
2024-02-05T21:18:58.914Z,19.38
2024-02-05T21:22:01.597Z,19.38
2024-02-05T21:25:04.275Z,19.38
2024-02-05T21:28:06.857Z,19.38
2024-02-05T21:31:11.447Z,19.31
2024-02-05T21:34:14.539Z,19.31
2024-02-05T21:37:17.183Z,19.31
2024-02-05T21:40:19.725Z,19.31
2024-02-05T21:43:22.057Z,19.31
2024-02-05T21:46:24.558Z,19.31
2024-02-05T21:49:27.099Z,19.31
2024-02-05T21:52:29.541Z,19.31
2024-02-05T21:55:32.073Z,19.31
2024-02-05T21:58:34.404Z,19.25
2024-02-05T22:01:36.884Z,19.25
2024-02-05T22:04:39.707Z,19.25
2024-02-05T22:07:42.422Z,19.25
2024-02-05T22:10:44.832Z,19.25
2024-02-05T22:13:47.228Z,19.25
2024-02-05T22:16:49.585Z,19.25
2024-02-05T22:19:51.981Z,19.25
2024-02-05T22:22:55.793Z,19.19
2024-02-05T22:25:58.125Z,19.25
2024-02-05T22:29:00.447Z,19.19
2024-02-05T22:32:04.852Z,19.19
2024-02-05T22:35:08.271Z,19.19
2024-02-05T22:38:10.849Z,19.19
2024-02-05T22:41:13.031Z,19.19
2024-02-05T22:44:15.353Z,19.19
2024-02-05T22:47:17.558Z,19.13
2024-02-05T22:50:20.908Z,19.19
2024-02-05T22:53:23.221Z,19.13
2024-02-05T22:56:25.481Z,19.13
2024-02-05T22:59:27.680Z,19.13
2024-02-05T23:02:30.389Z,19.13
2024-02-05T23:05:32.980Z,19.13
2024-02-05T23:08:35.319Z,19.06
2024-02-05T23:11:37.583Z,19.06
2024-02-05T23:14:39.985Z,19.06
2024-02-05T23:17:42.560Z,19.06
2024-02-05T23:20:44.967Z,19.06
2024-02-05T23:23:47.197Z,19.06
2024-02-05T23:26:50.412Z,19.06
2024-02-05T23:29:52.760Z,19.06
2024-02-05T23:32:57.021Z,19.00
2024-02-05T23:36:00.811Z,19.00
2024-02-05T23:39:03.237Z,19.00
2024-02-05T23:42:05.599Z,19.00
2024-02-05T23:45:08.279Z,19.00
2024-02-05T23:48:10.519Z,18.94
2024-02-05T23:51:12.902Z,18.94
2024-02-05T23:54:15.118Z,18.94
2024-02-05T23:57:21.293Z,18.94
